Time;durP1;ratioP1;P1;durP2;ratioP2;P2;SDS_P1;SDS_P2;PMS_P1;PMS_P2;Temp;Humidity;BMP_temperature;BMP_pressure;BME280_temperature;BME280_humidity;BME280_pressure;Samples;Min_cycle;Max_cycle;Signal;HPM_P1;HPM_P2
2022/01/05 16:32:16;;;;;;;1.10;0.28;;;6.90;99.90;;;;;;5121482;27;20115;-77
2022/01/05 16:34:45;;;;;;;0.35;0.20;;;7.00;99.20;;;;;;5104858;28;21933;-75
2022/01/05 16:37:11;;;;;;;0.47;0.20;;;7.20;97.90;;;;;;5125241;27;20030;-75
2022/01/05 16:39:37;;;;;;;0.93;0.10;;;7.30;97.70;;;;;;5116789;27;20036;-76
2022/01/05 16:42:18;;;;;;;0.10;0.00;;;7.40;96.10;;;;;;5099155;27;20028;-75
2022/01/05 16:44:44;;;;;;;1.10;0.28;;;7.50;96.20;;;;;;5059006;28;20032;-75
2022/01/05 16:47:10;;;;;;;0.38;0.15;;;7.20;97.80;;;;;;5062369;28;20029;-76
2022/01/05 16:50:38;;;;;;;0.00;0.00;;;7.20;97.40;;;;;;5045330;28;20025;-75
2022/01/05 16:53:01;;;;;;;0.13;0.03;;;7.30;96.40;;;;;;5050186;28;20049;-76
2022/01/05 16:55:27;;;;;;;0.40;0.20;;;7.30;96.00;;;;;;5058658;28;20025;-75
2022/01/05 17:00:39;;;;;;;0.10;0.10;;;7.20;96.10;;;;;;5055897;28;20139;-75
2022/01/05 17:03:12;;;;;;;0.17;0.13;;;7.20;96.20;;;;;;5050430;28;20036;-75
2022/01/05 17:05:41;;;;;;;0.38;0.13;;;7.30;94.70;;;;;;5054933;28;20585;-76
2022/01/05 17:08:07;;;;;;;0.20;0.10;;;7.20;95.70;;;;;;5051909;28;20028;-76
2022/01/05 17:10:35;;;;;;;0.65;0.20;;;7.20;95.60;;;;;;5053111;28;20780;-75
2022/01/05 17:13:01;;;;;;;0.38;0.20;;;7.40;94.30;;;;;;5056317;28;20068;-75
2022/01/05 17:15:27;;;;;;;0.45;0.20;;;7.30;95.10;;;;;;5046406;28;20025;-74
2022/01/05 17:17:54;;;;;;;0.10;0.10;;;7.40;95.00;;;;;;5054304;28;20040;-75
2022/01/05 17:20:21;;;;;;;0.57;0.10;;;7.30;94.80;;;;;;5050677;28;20375;-76
2022/01/05 17:22:47;;;;;;;0.52;0.20;;;7.40;93.20;;;;;;5051641;28;20032;-74
2022/01/05 17:25:16;;;;;;;0.50;0.30;;;7.30;95.30;;;;;;5055635;28;20352;-74
2022/01/05 17:27:42;;;;;;;0.55;0.22;;;7.30;95.50;;;;;;5052862;28;20031;-75
2022/01/05 17:30:09;;;;;;;0.20;0.10;;;7.70;91.50;;;;;;5046632;28;20144;-76
2022/01/05 17:32:35;;;;;;;0.70;0.20;;;7.80;92.00;;;;;;5050882;28;20036;-75
2022/01/05 17:35:01;;;;;;;0.65;0.17;;;7.70;91.70;;;;;;5059558;28;20025;-76
2022/01/05 17:37:27;;;;;;;0.70;0.20;;;7.70;92.10;;;;;;5048079;28;20033;-76
2022/01/05 17:39:59;;;;;;;1.17;0.30;;;7.60;92.50;;;;;;5051800;28;20063;-75
2022/01/05 17:42:27;;;;;;;0.52;0.17;;;7.60;92.20;;;;;;5047633;28;20788;-75
2022/01/05 17:44:55;;;;;;;7.18;0.40;;;7.60;91.80;;;;;;5043803;28;20033;-75
2022/01/05 17:47:22;;;;;;;1.25;0.20;;;7.90;90.40;;;;;;5038392;28;20111;-76
2022/01/05 17:49:52;;;;;;;0.80;0.10;;;7.80;90.90;;;;;;5041974;28;20033;-75
2022/01/05 17:52:18;;;;;;;0.22;0.00;;;7.80;90.80;;;;;;5040971;28;20118;-76
2022/01/05 17:54:45;;;;;;;0.00;0.00;;;7.80;90.90;;;;;;5039809;28;20048;-75
2022/01/05 17:57:11;;;;;;;0.73;0.20;;;7.60;91.30;;;;;;5036863;28;20032;-75
2022/01/05 17:59:37;;;;;;;0.35;0.20;;;7.80;90.40;;;;;;5048259;28;20363;-76
2022/01/05 18:02:03;;;;;;;0.60;0.32;;;7.70;90.80;;;;;;5039019;28;20043;-75
2022/01/05 18:04:29;;;;;;;0.35;0.10;;;7.70;91.20;;;;;;5046029;28;20037;-76
2022/01/05 18:06:55;;;;;;;0.52;0.20;;;7.50;91.30;;;;;;5047339;28;20108;-75
2022/01/05 18:09:21;;;;;;;0.40;0.40;;;7.70;90.10;;;;;;5043598;28;20132;-76
2022/01/05 18:11:47;;;;;;;0.32;0.10;;;7.60;91.30;;;;;;5044351;28;20036;-75
2022/01/05 18:14:13;;;;;;;1.65;0.30;;;7.40;91.50;;;;;;5041937;28;20032;-75
2022/01/05 18:16:53;;;;;;;0.10;0.10;;;7.40;91.20;;;;;;5047168;28;20033;-76
2022/01/05 18:19:20;;;;;;;0.57;0.20;;;7.40;90.60;;;;;;5037428;28;20021;-76
2022/01/05 18:21:47;;;;;;;0.30;0.10;;;7.40;90.50;;;;;;5045278;28;20041;-77
2022/01/05 18:24:14;;;;;;;0.20;0.10;;;7.40;90.60;;;;;;5043894;28;20104;-76
2022/01/05 18:26:40;;;;;;;0.25;0.03;;;7.50;90.10;;;;;;5034782;28;20025;-76
2022/01/05 18:29:06;;;;;;;0.30;0.03;;;7.40;90.40;;;;;;5036564;28;20040;-74
2022/01/05 18:31:33;;;;;;;0.10;0.10;;;7.50;88.70;;;;;;5040489;28;20121;-75
2022/01/05 18:33:59;;;;;;;0.20;0.10;;;7.60;87.50;;;;;;5038287;28;20065;-76
2022/01/05 18:36:26;;;;;;;0.75;0.13;;;7.70;87.10;;;;;;5024922;28;20621;-75
2022/01/05 18:38:53;;;;;;;1.55;0.05;;;7.60;87.40;;;;;;5024214;28;20025;-76
2022/01/05 18:41:20;;;;;;;0.55;0.30;;;7.50;86.40;;;;;;5041267;28;20044;-77
2022/01/05 18:43:46;;;;;;;0.20;0.10;;;7.60;86.10;;;;;;5035742;28;20051;-77
2022/01/05 18:46:12;;;;;;;0.10;0.10;;;7.60;86.20;;;;;;5043604;28;20056;-76
2022/01/05 18:48:38;;;;;;;0.50;0.15;;;7.50;85.50;;;;;;5039998;28;20079;-78
2022/01/05 18:51:05;;;;;;;0.13;0.03;;;7.40;86.20;;;;;;5039389;28;20126;-76
2022/01/05 18:53:31;;;;;;;4.38;0.35;;;7.50;85.10;;;;;;5040375;28;20061;-76
2022/01/05 18:55:57;;;;;;;0.00;0.00;;;7.50;85.90;;;;;;5041333;28;20158;-78
2022/01/05 18:58:23;;;;;;;0.13;0.10;;;7.40;83.70;;;;;;5032690;28;20136;-76
2022/01/05 19:00:49;;;;;;;0.13;0.00;;;7.50;83.50;;;;;;5016257;28;20037;-77
2022/01/05 19:03:16;;;;;;;0.00;0.00;;;7.40;84.40;;;;;;5039478;28;20382;-79
2022/01/05 19:05:42;;;;;;;0.22;0.08;;;7.40;84.90;;;;;;5041088;28;20053;-78
2022/01/05 19:08:10;;;;;;;0.00;0.00;;;7.40;85.60;;;;;;5039987;28;20484;-78
2022/01/05 19:10:37;;;;;;;0.65;0.20;;;7.30;87.00;;;;;;5041857;28;20087;-76
2022/01/05 19:13:03;;;;;;;0.32;0.10;;;7.30;84.90;;;;;;5034218;28;20604;-78
2022/01/05 19:15:29;;;;;;;0.40;0.20;;;7.30;85.70;;;;;;5035080;28;20025;-78
2022/01/05 19:17:55;;;;;;;0.63;0.10;;;7.30;84.70;;;;;;5035542;28;20038;-77
2022/01/05 19:20:22;;;;;;;0.22;0.10;;;7.20;84.80;;;;;;5041927;28;20047;-80
2022/01/05 19:22:48;;;;;;;0.40;0.10;;;7.20;85.70;;;;;;5035588;28;20025;-77
2022/01/05 19:25:14;;;;;;;0.10;0.10;;;7.20;83.80;;;;;;5036483;28;20499;-78
2022/01/05 19:27:40;;;;;;;1.75;0.30;;;7.10;83.40;;;;;;5040651;28;20024;-77
2022/01/05 19:30:06;;;;;;;0.20;0.10;;;7.20;82.90;;;;;;5043294;28;20025;-78
2022/01/05 19:32:32;;;;;;;28.40;13.38;;;7.20;83.20;;;;;;5043934;28;20120;-78
2022/01/05 19:34:58;;;;;;;4.57;1.80;;;7.00;84.50;;;;;;5038885;28;20125;-78
2022/01/05 19:37:25;;;;;;;1.15;0.80;;;6.90;86.40;;;;;;5035804;28;20044;-77
2022/01/05 19:39:52;;;;;;;8.77;3.22;;;6.70;86.40;;;;;;5040604;28;20028;-76
2022/01/05 19:42:17;;;;;;;0.85;0.40;;;6.80;85.70;;;;;;5039951;28;20609;-77
2022/01/05 19:44:43;;;;;;;0.40;0.10;;;6.80;84.70;;;;;;5039392;28;20033;-77
2022/01/05 19:47:10;;;;;;;0.40;0.10;;;6.90;82.80;;;;;;5031848;28;20112;-77
2022/01/05 19:49:37;;;;;;;0.38;0.08;;;7.00;83.00;;;;;;5037165;28;20034;-76
2022/01/05 19:52:07;;;;;;;1.02;0.43;;;7.00;83.00;;;;;;5034297;28;20035;-75
2022/01/05 19:54:36;;;;;;;0.20;0.10;;;7.00;80.80;;;;;;5038338;28;20076;-77
2022/01/05 19:57:05;;;;;;;1.13;0.20;;;7.10;80.00;;;;;;5040996;28;20029;-75
2022/01/05 19:59:39;;;;;;;0.00;0.00;;;7.10;79.40;;;;;;5033316;28;20111;-76
2022/01/05 20:02:15;;;;;;;0.82;0.20;;;7.00;81.80;;;;;;5038643;28;20083;-76
2022/01/05 20:04:42;;;;;;;1.20;0.20;;;7.00;78.50;;;;;;5030602;28;20017;-75
2022/01/05 20:07:10;;;;;;;0.30;0.10;;;6.80;80.30;;;;;;5036602;28;20037;-76
2022/01/05 20:09:37;;;;;;;0.65;0.15;;;6.80;80.10;;;;;;5038386;28;20053;-76
2022/01/05 20:12:04;;;;;;;0.22;0.10;;;6.90;77.00;;;;;;5031455;28;20042;-77
2022/01/05 20:14:30;;;;;;;0.20;0.10;;;6.90;76.40;;;;;;5034596;28;20064;-78
2022/01/05 20:16:56;;;;;;;0.30;0.10;;;7.00;76.40;;;;;;5036303;28;20178;-77
2022/01/05 20:19:23;;;;;;;3.40;0.32;;;6.90;75.40;;;;;;5030313;28;20036;-77
2022/01/05 20:21:49;;;;;;;0.70;0.30;;;6.80;76.40;;;;;;5037851;28;20041;-77
2022/01/05 20:24:15;;;;;;;0.32;0.10;;;6.80;74.10;;;;;;5019626;28;20581;-77
2022/01/05 20:26:41;;;;;;;0.70;0.28;;;6.80;75.10;;;;;;5032315;28;20029;-77
2022/01/05 20:29:11;;;;;;;1.73;0.38;;;6.80;74.20;;;;;;5032776;28;20040;-77
2022/01/05 20:31:39;;;;;;;1.17;0.52;;;6.80;72.50;;;;;;5027867;28;20110;-77
2022/01/05 20:34:06;;;;;;;0.30;0.20;;;6.80;72.00;;;;;;5038795;28;20029;-76
2022/01/05 20:36:33;;;;;;;0.15;0.15;;;6.80;72.10;;;;;;5021079;28;20468;-76
2022/01/05 20:38:59;;;;;;;0.68;0.45;;;6.90;71.50;;;;;;5035769;28;20029;-76
2022/01/05 20:41:26;;;;;;;0.55;0.22;;;6.90;70.20;;;;;;5039371;28;20033;-76
2022/01/05 20:43:53;;;;;;;0.28;0.00;;;6.80;70.80;;;;;;5040819;28;20087;-77
2022/01/05 20:46:18;;;;;;;0.28;0.10;;;6.90;69.10;;;;;;5034111;28;20021;-77
2022/01/05 20:48:45;;;;;;;1.02;0.30;;;7.00;68.20;;;;;;5034623;28;20035;-77
2022/01/05 20:51:11;;;;;;;1.60;0.13;;;7.20;65.80;;;;;;5036081;28;20029;-77
2022/01/05 20:53:38;;;;;;;0.35;0.10;;;7.10;66.90;;;;;;5035835;28;20102;-77
2022/01/05 20:56:04;;;;;;;0.22;0.00;;;7.00;66.50;;;;;;5033016;28;20465;-78
2022/01/05 20:58:31;;;;;;;1.60;0.10;;;7.00;66.90;;;;;;5031266;28;20036;-78
2022/01/05 21:00:57;;;;;;;0.93;0.10;;;7.00;66.30;;;;;;5038321;28;20033;-77
2022/01/05 21:03:23;;;;;;;0.28;0.10;;;7.00;65.40;;;;;;5037581;28;20033;-78
2022/01/05 21:05:49;;;;;;;0.13;0.10;;;7.00;64.70;;;;;;5040419;28;20055;-77
2022/01/05 21:08:16;;;;;;;0.30;0.03;;;7.00;65.20;;;;;;5037790;28;20059;-77
2022/01/05 21:10:42;;;;;;;0.20;0.10;;;7.00;63.80;;;;;;5032789;28;20029;-77
2022/01/05 21:13:08;;;;;;;0.30;0.10;;;6.90;67.30;;;;;;5031907;28;20033;-77
2022/01/05 21:15:37;;;;;;;0.63;0.20;;;7.10;64.30;;;;;;5035543;28;20464;-77
2022/01/05 21:18:10;;;;;;;0.00;0.00;;;7.00;64.70;;;;;;5036363;28;20033;-77
2022/01/05 21:20:37;;;;;;;0.08;0.00;;;6.90;65.60;;;;;;5036545;28;20048;-76
2022/01/05 21:23:03;;;;;;;0.50;0.20;;;6.90;64.90;;;;;;5040815;28;20040;-77
2022/01/05 21:25:29;;;;;;;0.03;0.00;;;6.90;64.90;;;;;;5044488;28;20060;-78
2022/01/05 21:28:01;;;;;;;0.88;0.30;;;6.90;65.10;;;;;;5043792;28;20060;-76
2022/01/05 21:30:33;;;;;;;0.38;0.10;;;7.00;64.30;;;;;;5034516;28;20091;-77
2022/01/05 21:32:59;;;;;;;2.28;0.15;;;7.00;64.70;;;;;;5044467;28;20033;-76
2022/01/05 21:35:25;;;;;;;1.08;0.35;;;6.80;66.10;;;;;;5040131;28;20464;-76
2022/01/05 21:37:51;;;;;;;0.20;0.10;;;6.80;67.10;;;;;;5038981;28;20116;-76
2022/01/05 21:40:17;;;;;;;0.43;0.10;;;6.80;65.40;;;;;;5033829;28;20044;-76
2022/01/05 21:42:43;;;;;;;0.13;0.10;;;6.90;65.30;;;;;;5041139;28;20080;-76
2022/01/05 21:45:09;;;;;;;0.20;0.20;;;6.90;64.90;;;;;;5037880;28;20104;-75
2022/01/05 21:47:37;;;;;;;0.00;0.00;;;7.00;64.80;;;;;;5041880;28;20029;-76
2022/01/05 21:50:08;;;;;;;0.30;0.10;;;6.90;64.70;;;;;;5037028;28;20036;-76
2022/01/05 21:52:33;;;;;;;0.25;0.15;;;7.00;64.40;;;;;;5040535;28;20021;-76
2022/01/05 21:55:00;;;;;;;1.10;0.10;;;6.90;65.20;;;;;;5035998;28;20129;-76
2022/01/05 21:57:25;;;;;;;0.20;0.17;;;7.00;63.80;;;;;;5041221;28;20601;-76
2022/01/05 21:59:51;;;;;;;0.30;0.00;;;7.00;64.60;;;;;;5039224;28;20116;-76
2022/01/05 22:02:18;;;;;;;0.98;0.20;;;6.90;64.90;;;;;;5038613;28;20044;-76
2022/01/05 22:04:43;;;;;;;1.92;0.65;;;6.80;65.70;;;;;;5036399;28;20601;-77
2022/01/05 22:07:09;;;;;;;0.20;0.05;;;6.70;67.20;;;;;;5038455;28;20029;-77
2022/01/05 22:09:35;;;;;;;0.28;0.00;;;6.80;65.90;;;;;;5036881;28;20400;-77
2022/01/05 22:12:00;;;;;;;0.28;0.05;;;6.90;65.40;;;;;;5036256;28;20030;-76
2022/01/05 22:14:26;;;;;;;0.20;0.10;;;6.80;67.30;;;;;;5040515;28;20364;-76
2022/01/05 22:16:52;;;;;;;0.73;0.35;;;6.70;67.30;;;;;;5042015;28;20174;-76
2022/01/05 22:19:18;;;;;;;0.30;0.00;;;6.70;67.50;;;;;;5036817;28;20472;-76
2022/01/05 22:21:43;;;;;;;0.08;0.08;;;6.80;66.20;;;;;;5041225;28;20044;-75
2022/01/05 22:24:09;;;;;;;0.20;0.10;;;6.90;65.80;;;;;;5042536;28;20130;-76
2022/01/05 22:26:35;;;;;;;0.00;0.00;;;6.80;66.00;;;;;;5038740;28;20422;-76
2022/01/05 22:29:01;;;;;;;0.28;0.10;;;6.80;66.50;;;;;;5041076;28;20024;-76
2022/01/05 22:31:26;;;;;;;0.35;0.00;;;6.80;66.80;;;;;;5033053;28;20072;-76
2022/01/05 22:33:52;;;;;;;0.10;0.10;;;6.70;66.60;;;;;;5040935;28;20037;-76
2022/01/05 22:36:18;;;;;;;0.00;0.00;;;6.70;67.60;;;;;;5039829;28;20206;-76
2022/01/05 22:38:44;;;;;;;0.13;0.10;;;6.70;66.90;;;;;;5027494;28;20033;-76
2022/01/05 22:41:09;;;;;;;0.90;0.20;;;6.70;67.00;;;;;;5036800;28;20039;-76
2022/01/05 22:43:35;;;;;;;0.22;0.10;;;6.80;66.60;;;;;;5041586;28;20024;-76
2022/01/05 22:46:01;;;;;;;0.55;0.17;;;6.70;67.40;;;;;;5040118;28;20630;-76
2022/01/05 22:48:26;;;;;;;0.55;0.10;;;6.60;69.50;;;;;;5038479;28;20136;-76
2022/01/05 22:50:52;;;;;;;0.05;0.05;;;6.60;69.00;;;;;;5040654;28;20434;-76
2022/01/05 22:53:18;;;;;;;1.20;0.30;;;6.50;69.10;;;;;;5037397;28;20025;-76
2022/01/05 22:55:45;;;;;;;0.50;0.20;;;6.50;69.30;;;;;;5034253;28;20044;-76
2022/01/05 22:58:12;;;;;;;0.38;0.10;;;6.50;68.60;;;;;;5031756;28;20419;-76
2022/01/05 23:00:40;;;;;;;0.30;0.10;;;6.50;69.60;;;;;;5034123;28;20025;-76
2022/01/05 23:03:08;;;;;;;0.88;0.20;;;6.50;69.60;;;;;;5031205;28;20195;-76
2022/01/05 23:05:36;;;;;;;0.35;0.10;;;6.50;69.60;;;;;;5030935;28;20021;-76
2022/01/05 23:08:04;;;;;;;0.20;0.15;;;6.40;70.40;;;;;;5028779;28;20119;-76
2022/01/05 23:10:30;;;;;;;0.52;0.10;;;6.40;69.60;;;;;;5043025;28;20561;-76
2022/01/05 23:12:58;;;;;;;0.40;0.20;;;6.40;70.10;;;;;;5042044;28;20048;-76
2022/01/05 23:15:24;;;;;;;0.45;0.13;;;6.40;69.90;;;;;;5041599;28;20061;-76
2022/01/05 23:17:51;;;;;;;0.65;0.20;;;6.40;70.20;;;;;;5041375;28;20017;-76
2022/01/05 23:20:19;;;;;;;0.30;0.10;;;6.40;70.20;;;;;;5046877;28;20029;-76
2022/01/05 23:22:46;;;;;;;0.45;0.10;;;6.30;71.10;;;;;;5040902;28;20112;-76
2022/01/05 23:25:12;;;;;;;0.20;0.10;;;6.30;71.70;;;;;;5039945;28;20025;-76
2022/01/05 23:27:39;;;;;;;0.20;0.20;;;6.20;72.20;;;;;;5045078;28;20085;-75
2022/01/05 23:30:08;;;;;;;0.47;0.28;;;6.30;70.60;;;;;;5047351;28;20118;-76
2022/01/05 23:32:34;;;;;;;1.75;0.03;;;6.30;70.90;;;;;;5042844;28;20558;-76
2022/01/05 23:35:00;;;;;;;0.52;0.10;;;6.40;70.20;;;;;;5045895;28;20242;-77
2022/01/05 23:37:26;;;;;;;0.13;0.00;;;6.40;70.80;;;;;;5044039;28;20387;-76
2022/01/05 23:39:52;;;;;;;0.10;0.10;;;6.40;71.10;;;;;;5032643;28;20025;-76
2022/01/05 23:42:18;;;;;;;0.80;0.10;;;6.30;72.50;;;;;;5038115;28;20515;-76
2022/01/05 23:44:45;;;;;;;0.00;0.00;;;6.30;72.40;;;;;;5041790;28;20029;-76
2022/01/05 23:47:10;;;;;;;0.22;0.03;;;6.30;71.30;;;;;;5041554;28;20114;-76
2022/01/05 23:49:36;;;;;;;1.90;0.10;;;6.20;72.30;;;;;;5043385;28;20083;-76
2022/01/05 23:52:03;;;;;;;0.40;0.15;;;6.30;71.70;;;;;;5041026;28;20037;-76
2022/01/05 23:54:29;;;;;;;0.32;0.10;;;6.20;73.10;;;;;;5044938;28;20103;-76
2022/01/05 23:56:55;;;;;;;0.15;0.10;;;6.30;70.90;;;;;;5043225;28;20021;-76
2022/01/05 23:59:20;;;;;;;0.80;0.17;;;6.30;72.10;;;;;;5041110;28;20423;-76
